Portada
METAR-TAF:

METAR-TAF

Aeroports :

Kobe, Japó

latitud: 34-37-58N, longitud: 135-13-26E, altitud: 7 m

Observació

L'informe es va fer fa 18 minuts, a les 03:00 UTC
Vent 5 kt del Sud/Sud-Est, variant entre Est/Sud-Est i Sud
Temperatura 19°C
Humitat 52%
Pressió 1019 hPa
Visibilitat 10 km o més
Escasses núvols a una alçada de 3000 ft

METAR: RJBE 270300Z 15005KT 120V180 9999 FEW030 19/09 Q1019

Hora: 12:18 (03:18 UTC)


TAF: manca

Observacions i pronòstics meteorològics de més de 4000 aeroports (METAR i TAF).

Les estacions disponibles són els punts grocs i vermells al mapa.

Posi el ratolí al punt desitjat per veure el nom de l'estació.

Feu clic per veure les observacions i els pronòstics meteorològics.

Per canviar el mapa: feu clic els botons verds amb una creu de color negre per apropar; al botó verd amb un guió per allunyar la imatge; o en les fletxes verdes per a mapes adjacents.


METAR-TAF: